Time;durP1;ratioP1;P1;durP2;ratioP2;P2;SDS_P1;SDS_P2;PMS_P1;PMS_P2;Temp;Humidity;BMP_temperature;BMP_pressure;BME280_temperature;BME280_humidity;BME280_pressure;Samples;Min_cycle;Max_cycle;Signal;HPM_P1;HPM_P2
2022/02/23 00:01:46;;;;;;;29.40;5.80;;;6.80;99.90;;;;;;5066205;28;20190;-70
2022/02/23 00:04:13;;;;;;;22.70;5.70;;;6.70;99.90;;;;;;5066822;28;20398;-68
2022/02/23 00:06:40;;;;;;;14.98;4.30;;;6.70;99.90;;;;;;5066285;28;20204;-68
2022/02/23 00:09:07;;;;;;;27.95;6.93;;;6.70;99.90;;;;;;5066489;28;20194;-71
2022/02/23 00:11:34;;;;;;;15.90;7.40;;;6.60;99.90;;;;;;5066057;28;20370;-69
2022/02/23 00:14:01;;;;;;;18.27;5.57;;;6.70;99.90;;;;;;5066224;28;20228;-68
2022/02/23 00:16:32;;;;;;;23.60;5.97;;;6.60;99.90;;;;;;5066817;28;20404;-69
2022/02/23 00:18:58;;;;;;;14.63;5.30;;;6.70;99.90;;;;;;5066820;28;20319;-68
2022/02/23 00:21:25;;;;;;;21.17;4.47;;;6.70;99.90;;;;;;5066046;28;20222;-67
2022/02/23 00:23:52;;;;;;;24.15;5.10;;;6.70;99.90;;;;;;5066333;28;20415;-69
2022/02/23 00:26:19;;;;;;;24.77;5.32;;;6.70;99.90;;;;;;5067008;28;20218;-70
2022/02/23 00:28:46;;;;;;;23.60;5.35;;;6.70;99.90;;;;;;5066233;28;20205;-69
2022/02/23 00:31:13;;;;;;;19.25;4.57;;;6.70;99.90;;;;;;5068051;28;20277;-68
2022/02/23 00:33:41;;;;;;;21.13;5.03;;;6.70;99.90;;;;;;5066265;28;20385;-69
2022/02/23 00:36:08;;;;;;;24.95;6.38;;;6.70;99.90;;;;;;5059284;28;20190;-68
2022/02/23 00:38:35;;;;;;;16.00;4.15;;;6.70;99.90;;;;;;5066843;28;20217;-68
2022/02/23 00:41:02;;;;;;;27.15;6.25;;;6.70;99.90;;;;;;5065765;28;20190;-68
2022/02/23 00:43:29;;;;;;;17.00;5.28;;;6.70;99.90;;;;;;5066315;28;20228;-68
2022/02/23 00:45:55;;;;;;;20.63;6.57;;;6.70;99.90;;;;;;5069441;28;20324;-69
2022/02/23 00:48:22;;;;;;;18.77;6.15;;;6.70;99.90;;;;;;5069251;28;20311;-68
2022/02/23 00:50:51;;;;;;;26.23;7.88;;;6.70;99.90;;;;;;5065652;28;20232;-70
2022/02/23 00:53:18;;;;;;;18.25;4.20;;;6.70;99.90;;;;;;5075031;28;20213;-69
2022/02/23 00:55:45;;;;;;;32.75;5.18;;;6.60;99.90;;;;;;5066100;28;20370;-69
2022/02/23 00:58:12;;;;;;;17.98;5.15;;;6.60;99.90;;;;;;5066046;28;20421;-70
2022/02/23 01:00:39;;;;;;;17.83;4.00;;;6.60;99.90;;;;;;5065507;28;20190;-69
2022/02/23 01:03:06;;;;;;;28.40;6.07;;;6.60;99.90;;;;;;5065967;28;20277;-68
2022/02/23 01:05:33;;;;;;;18.23;5.38;;;6.60;99.90;;;;;;5066423;28;20216;-69
2022/02/23 01:08:01;;;;;;;19.80;4.57;;;6.60;99.90;;;;;;5066334;28;20233;-68
2022/02/23 01:10:28;;;;;;;22.33;5.78;;;6.60;99.90;;;;;;5065373;28;20637;-69
2022/02/23 01:12:55;;;;;;;28.90;7.03;;;6.60;99.90;;;;;;5065637;28;20218;-69
2022/02/23 01:15:22;;;;;;;26.25;5.47;;;6.60;99.90;;;;;;5066252;28;20196;-70
2022/02/23 01:17:49;;;;;;;33.83;4.57;;;6.60;99.90;;;;;;5067050;28;20216;-70
2022/02/23 01:20:16;;;;;;;21.13;4.60;;;6.60;99.90;;;;;;5069605;28;20209;-69
2022/02/23 01:22:43;;;;;;;27.02;6.15;;;6.60;99.90;;;;;;5069678;28;20248;-68
2022/02/23 01:25:11;;;;;;;17.67;4.43;;;6.60;99.90;;;;;;5070019;28;20232;-69
2022/02/23 01:27:38;;;;;;;19.27;5.20;;;6.50;99.90;;;;;;5069594;28;20246;-69
2022/02/23 01:30:07;;;;;;;17.08;5.72;;;6.60;99.90;;;;;;5069279;28;20242;-70
2022/02/23 01:32:35;;;;;;;22.33;6.28;;;6.50;99.90;;;;;;5069397;28;20380;-70
2022/02/23 01:35:01;;;;;;;17.73;5.20;;;6.60;99.90;;;;;;5069872;28;20182;-68
2022/02/23 01:37:28;;;;;;;16.25;4.05;;;6.60;99.90;;;;;;5069833;28;20251;-69
2022/02/23 01:39:55;;;;;;;29.23;5.15;;;6.60;99.90;;;;;;5068662;28;20182;-68
2022/02/23 01:42:24;;;;;;;25.80;6.00;;;6.60;99.90;;;;;;5069564;28;20205;-68
2022/02/23 01:44:51;;;;;;;18.38;4.85;;;6.50;99.90;;;;;;5069526;28;20194;-68
2022/02/23 01:47:18;;;;;;;25.58;4.00;;;6.60;99.90;;;;;;5069931;28;20299;-69
2022/02/23 01:49:45;;;;;;;28.67;4.82;;;6.60;99.90;;;;;;5068659;28;20255;-70
2022/02/23 01:52:12;;;;;;;21.30;4.00;;;6.60;99.90;;;;;;5068532;28;20274;-69
2022/02/23 01:54:39;;;;;;;26.73;4.80;;;6.60;99.90;;;;;;5069496;28;20262;-70
2022/02/23 01:57:06;;;;;;;13.70;4.95;;;6.70;99.90;;;;;;5069462;28;20359;-68
2022/02/23 01:59:34;;;;;;;14.73;4.43;;;6.70;99.90;;;;;;5068589;28;20197;-68
2022/02/23 02:02:01;;;;;;;19.02;5.10;;;6.80;99.90;;;;;;5068859;28;20290;-68
2022/02/23 02:04:28;;;;;;;19.25;6.00;;;6.80;99.90;;;;;;5069004;28;20199;-68
2022/02/23 02:06:55;;;;;;;25.35;7.35;;;6.80;99.90;;;;;;5068765;28;20195;-68
2022/02/23 02:09:22;;;;;;;15.77;4.13;;;6.80;99.90;;;;;;5069056;28;20237;-68
2022/02/23 02:11:49;;;;;;;25.08;5.53;;;6.80;99.90;;;;;;5068353;28;20230;-69
2022/02/23 02:14:16;;;;;;;21.58;5.25;;;6.80;99.90;;;;;;5068784;28;20193;-68
2022/02/23 02:16:44;;;;;;;13.65;4.75;;;6.90;99.90;;;;;;5069092;28;20233;-69
2022/02/23 02:19:11;;;;;;;21.40;7.07;;;6.80;99.90;;;;;;5069356;28;20225;-69
2022/02/23 02:21:56;;;;;;;13.82;5.28;;;7.00;99.90;;;;;;5058100;28;20191;-69
2022/02/23 02:24:24;;;;;;;27.58;5.65;;;6.90;99.90;;;;;;5069935;28;20205;-68
2022/02/23 02:26:51;;;;;;;22.88;5.85;;;7.00;99.90;;;;;;5069642;28;20237;-68
2022/02/23 02:29:21;;;;;;;19.98;4.88;;;7.00;99.90;;;;;;5069416;28;20294;-69
2022/02/23 02:31:48;;;;;;;10.55;4.43;;;7.00;99.90;;;;;;5069383;28;20222;-69
2022/02/23 02:34:15;;;;;;;17.17;4.63;;;7.10;99.90;;;;;;5069051;28;20190;-68
2022/02/23 02:36:43;;;;;;;19.67;4.55;;;7.00;99.90;;;;;;5068867;28;20193;-68
2022/02/23 02:39:11;;;;;;;17.58;5.60;;;7.00;99.90;;;;;;5062223;28;20186;-68
2022/02/23 02:41:38;;;;;;;19.90;5.25;;;7.00;99.90;;;;;;5068209;28;20192;-69
2022/02/23 02:44:06;;;;;;;32.95;6.45;;;7.10;99.90;;;;;;5076659;28;20191;-71
2022/02/23 02:46:33;;;;;;;25.63;7.50;;;7.10;99.90;;;;;;5068379;28;20441;-69
2022/02/23 02:49:00;;;;;;;26.40;5.53;;;7.00;99.90;;;;;;5068274;28;20190;-69
2022/02/23 02:51:28;;;;;;;25.10;6.35;;;7.00;99.90;;;;;;5067723;28;20220;-68
2022/02/23 02:53:55;;;;;;;21.48;7.40;;;6.80;99.90;;;;;;5067994;28;20237;-68
2022/02/23 02:56:23;;;;;;;22.50;4.75;;;6.70;99.90;;;;;;5068336;28;20239;-70
2022/02/23 02:58:52;;;;;;;18.70;5.07;;;6.60;99.90;;;;;;5068454;28;20232;-69
2022/02/23 03:01:20;;;;;;;10.95;4.07;;;6.50;99.90;;;;;;5067276;28;20189;-68
2022/02/23 03:03:47;;;;;;;18.08;7.30;;;6.50;99.90;;;;;;5068021;28;20216;-68
2022/02/23 03:06:14;;;;;;;12.35;4.22;;;6.40;99.90;;;;;;5068121;28;20189;-68
2022/02/23 03:08:41;;;;;;;24.83;5.43;;;6.30;99.90;;;;;;5067598;28;20313;-69
2022/02/23 03:11:08;;;;;;;18.42;3.92;;;6.30;99.90;;;;;;5067152;28;20231;-67
2022/02/23 03:13:36;;;;;;;33.83;6.82;;;6.40;99.90;;;;;;5067661;28;20249;-69
2022/02/23 03:16:04;;;;;;;36.97;7.43;;;6.40;99.90;;;;;;5068039;28;20190;-69
2022/02/23 03:18:31;;;;;;;8.00;3.15;;;6.40;99.90;;;;;;5067880;28;20197;-69
2022/02/23 03:20:58;;;;;;;12.93;5.60;;;6.40;99.90;;;;;;5066831;28;20236;-68
2022/02/23 03:23:25;;;;;;;18.23;4.22;;;6.40;99.90;;;;;;5070143;28;20233;-69
2022/02/23 03:25:52;;;;;;;18.55;4.18;;;6.40;99.90;;;;;;5067859;28;20197;-70
2022/02/23 03:28:19;;;;;;;23.15;5.70;;;6.50;99.90;;;;;;5067585;28;20224;-69
2022/02/23 03:30:47;;;;;;;19.92;5.25;;;6.50;99.90;;;;;;5066831;28;20213;-68
2022/02/23 03:33:15;;;;;;;23.50;8.02;;;6.50;99.90;;;;;;5067422;28;20206;-68
2022/02/23 03:35:43;;;;;;;20.25;5.25;;;6.50;99.90;;;;;;5067599;28;20193;-69
2022/02/23 03:38:10;;;;;;;17.50;5.50;;;6.50;99.90;;;;;;5058292;28;20190;-69
2022/02/23 03:40:38;;;;;;;22.90;5.40;;;6.50;99.90;;;;;;5066215;28;20181;-69
2022/02/23 03:43:06;;;;;;;19.77;4.72;;;6.50;99.90;;;;;;5067025;28;20280;-70
2022/02/23 03:45:33;;;;;;;34.47;7.07;;;6.50;99.90;;;;;;5067438;28;20213;-68
2022/02/23 03:48:02;;;;;;;22.88;4.32;;;6.50;99.90;;;;;;5063718;28;20193;-69
2022/02/23 03:50:29;;;;;;;17.75;4.95;;;6.50;99.90;;;;;;5066523;28;20213;-70
2022/02/23 03:52:56;;;;;;;23.83;4.82;;;6.50;99.90;;;;;;5067623;28;20224;-69
2022/02/23 03:55:23;;;;;;;13.32;3.40;;;6.40;99.90;;;;;;5073806;28;20216;-71
2022/02/23 03:57:50;;;;;;;22.15;4.45;;;6.40;99.90;;;;;;5070529;28;20409;-69
2022/02/23 04:00:17;;;;;;;17.15;5.47;;;6.40;99.90;;;;;;5066623;28;20184;-69
2022/02/23 04:02:45;;;;;;;18.42;3.85;;;6.40;99.90;;;;;;5063882;28;20208;-67
2022/02/23 04:05:13;;;;;;;16.65;4.10;;;6.40;99.90;;;;;;5066716;28;20250;-68
2022/02/23 04:07:40;;;;;;;24.95;5.15;;;6.30;99.90;;;;;;5066835;28;20197;-68
2022/02/23 04:10:09;;;;;;;22.48;4.22;;;6.40;99.90;;;;;;5066412;28;20236;-69
2022/02/23 04:12:36;;;;;;;24.00;4.70;;;6.40;99.90;;;;;;5066741;28;20329;-69
2022/02/23 04:15:04;;;;;;;13.75;4.50;;;6.50;99.90;;;;;;5066850;28;20377;-69
2022/02/23 04:17:31;;;;;;;19.13;4.40;;;6.50;99.90;;;;;;5067196;28;20338;-69
2022/02/23 04:19:58;;;;;;;24.05;5.38;;;6.50;99.90;;;;;;5073890;28;20212;-68
2022/02/23 04:22:26;;;;;;;16.90;6.55;;;6.50;99.90;;;;;;5066864;28;20233;-67
2022/02/23 04:24:53;;;;;;;17.65;4.32;;;6.40;99.90;;;;;;5067221;28;20315;-68
2022/02/23 04:27:20;;;;;;;31.65;6.05;;;6.40;99.90;;;;;;5067364;28;20189;-69
2022/02/23 04:29:47;;;;;;;14.93;4.93;;;6.40;99.90;;;;;;5065922;28;20225;-68
2022/02/23 04:32:14;;;;;;;32.95;7.25;;;6.40;99.90;;;;;;5065915;28;20212;-69
2022/02/23 04:34:41;;;;;;;26.02;5.72;;;6.40;99.90;;;;;;5066411;28;20193;-68
2022/02/23 04:37:08;;;;;;;27.55;5.07;;;6.40;99.90;;;;;;5066999;28;20195;-68
2022/02/23 04:39:36;;;;;;;20.80;7.40;;;6.40;99.90;;;;;;5067725;28;20250;-68
2022/02/23 04:42:06;;;;;;;30.33;4.40;;;6.30;99.90;;;;;;5066459;28;20438;-69
2022/02/23 04:44:32;;;;;;;22.80;5.07;;;6.30;99.90;;;;;;5066478;28;20337;-69
2022/02/23 04:46:59;;;;;;;17.90;3.88;;;6.30;99.90;;;;;;5066350;28;20310;-69
2022/02/23 04:49:26;;;;;;;17.70;6.00;;;6.20;99.90;;;;;;5066494;28;20222;-68
2022/02/23 04:51:53;;;;;;;21.20;5.25;;;6.10;99.90;;;;;;5067111;28;20221;-69
2022/02/23 04:54:20;;;;;;;11.88;3.17;;;6.10;99.90;;;;;;5070743;28;20212;-68
2022/02/23 04:56:48;;;;;;;18.20;3.72;;;6.00;99.90;;;;;;5070746;28;20223;-69
2022/02/23 04:59:17;;;;;;;17.10;6.00;;;6.00;99.90;;;;;;5070072;28;20428;-67
2022/02/23 05:01:44;;;;;;;24.65;5.30;;;6.10;99.90;;;;;;5069312;28;20226;-69
2022/02/23 05:04:11;;;;;;;16.98;4.78;;;6.10;99.90;;;;;;5066529;28;20234;-69
2022/02/23 05:06:37;;;;;;;18.80;4.22;;;6.10;99.90;;;;;;5069421;28;20396;-69
2022/02/23 05:09:05;;;;;;;22.50;5.28;;;6.10;99.90;;;;;;5069702;28;20246;-69
2022/02/23 05:11:32;;;;;;;18.83;4.90;;;6.10;99.90;;;;;;5069570;28;20235;-69
2022/02/23 05:14:00;;;;;;;18.13;5.72;;;6.10;99.90;;;;;;5067210;28;20232;-69
2022/02/23 05:16:27;;;;;;;30.92;5.88;;;6.10;99.90;;;;;;5067799;28;20398;-70
2022/02/23 05:18:54;;;;;;;16.85;5.05;;;6.10;99.90;;;;;;5068678;28;20233;-69
2022/02/23 05:21:20;;;;;;;15.85;4.07;;;6.10;99.90;;;;;;5068608;28;20236;-69
2022/02/23 05:23:47;;;;;;;15.05;5.15;;;6.00;99.90;;;;;;5069928;28;20341;-69
2022/02/23 05:26:15;;;;;;;23.17;5.95;;;6.00;99.90;;;;;;5069869;28;20353;-68
2022/02/23 05:28:41;;;;;;;22.38;4.47;;;5.90;99.90;;;;;;5070203;28;20195;-70
2022/02/23 05:31:10;;;;;;;19.90;6.50;;;5.90;99.90;;;;;;5073247;28;20633;-70
2022/02/23 05:33:37;;;;;;;25.00;6.03;;;5.80;99.90;;;;;;5069267;28;20207;-68
2022/02/23 05:36:04;;;;;;;21.45;3.88;;;5.90;99.90;;;;;;5073040;28;20218;-69
2022/02/23 05:38:31;;;;;;;20.15;5.43;;;5.70;99.90;;;;;;5068987;28;20208;-69
2022/02/23 05:40:58;;;;;;;20.00;3.33;;;5.70;99.90;;;;;;5068836;28;20224;-70
2022/02/23 05:43:25;;;;;;;20.65;5.55;;;5.60;99.90;;;;;;5069269;28;20267;-71
2022/02/23 05:45:52;;;;;;;18.02;5.55;;;5.60;99.90;;;;;;5069437;28;20211;-69
2022/02/23 05:48:20;;;;;;;27.88;5.75;;;5.50;99.90;;;;;;5069575;28;20455;-69
2022/02/23 05:50:47;;;;;;;20.23;3.95;;;5.50;99.90;;;;;;5067878;28;20235;-69
2022/02/23 05:53:14;;;;;;;16.17;4.65;;;5.50;99.90;;;;;;5070024;28;20210;-68
2022/02/23 05:55:41;;;;;;;31.05;7.45;;;5.40;99.90;;;;;;5069395;28;20203;-70
2022/02/23 05:58:08;;;;;;;20.25;4.90;;;5.40;99.90;;;;;;5069849;28;20211;-67
2022/02/23 06:00:35;;;;;;;26.55;6.65;;;5.40;99.90;;;;;;5069759;28;20210;-69
2022/02/23 06:03:02;;;;;;;16.17;5.28;;;5.40;99.90;;;;;;5069415;28;20214;-68
2022/02/23 06:05:30;;;;;;;30.65;6.88;;;5.40;99.90;;;;;;5069891;28;20223;-68
2022/02/23 06:07:57;;;;;;;15.65;5.93;;;5.40;99.90;;;;;;5069947;28;20229;-69
2022/02/23 06:10:26;;;;;;;30.45;6.72;;;5.40;99.90;;;;;;5068697;28;20196;-69
2022/02/23 06:12:53;;;;;;;17.88;5.00;;;5.40;99.90;;;;;;5068379;28;20215;-70
2022/02/23 06:15:20;;;;;;;27.13;5.72;;;5.40;99.90;;;;;;5069915;28;20227;-69
2022/02/23 06:17:47;;;;;;;20.17;6.05;;;5.50;99.90;;;;;;5069256;28;20207;-69
2022/02/23 06:20:14;;;;;;;22.35;3.72;;;5.50;99.90;;;;;;5074240;28;20426;-68
2022/02/23 06:22:42;;;;;;;15.35;4.97;;;5.50;99.90;;;;;;5076873;28;20220;-69
2022/02/23 06:25:09;;;;;;;21.13;4.90;;;5.50;99.90;;;;;;5069325;28;20214;-70
2022/02/23 06:27:36;;;;;;;28.90;6.22;;;5.50;99.90;;;;;;5068977;28;20204;-70
2022/02/23 06:30:04;;;;;;;27.73;5.03;;;5.60;99.90;;;;;;5063295;28;20190;-70
2022/02/23 06:32:31;;;;;;;27.65;5.55;;;5.50;99.90;;;;;;5057697;28;20287;-70
2022/02/23 06:34:58;;;;;;;10.27;4.15;;;5.70;99.90;;;;;;5068492;28;20204;-71
2022/02/23 06:37:25;;;;;;;22.13;7.30;;;5.60;99.90;;;;;;5064110;28;20184;-70
2022/02/23 06:39:54;;;;;;;21.17;6.15;;;5.60;99.90;;;;;;5067665;28;20198;-68
2022/02/23 06:42:22;;;;;;;24.55;5.68;;;5.60;99.90;;;;;;5068463;28;20261;-70
2022/02/23 06:44:49;;;;;;;20.67;5.03;;;5.60;99.90;;;;;;5068187;28;20215;-70
2022/02/23 06:47:17;;;;;;;21.65;6.38;;;5.70;99.90;;;;;;5063061;28;20216;-72
2022/02/23 06:49:44;;;;;;;38.03;6.32;;;5.70;99.90;;;;;;5066467;28;20203;-69
2022/02/23 06:52:11;;;;;;;18.60;5.88;;;5.70;99.90;;;;;;5066623;28;20455;-70
2022/02/23 06:54:38;;;;;;;30.90;6.15;;;5.80;99.90;;;;;;5066739;28;20205;-69
2022/02/23 06:57:08;;;;;;;23.88;5.32;;;5.80;99.90;;;;;;5076722;28;20263;-70
2022/02/23 06:59:35;;;;;;;22.40;4.95;;;5.90;99.90;;;;;;5059325;28;20220;-69
2022/02/23 07:02:02;;;;;;;22.50;4.80;;;5.90;99.90;;;;;;5066409;28;20329;-69
2022/02/23 07:04:28;;;;;;;27.70;5.80;;;6.00;99.90;;;;;;5066756;28;20204;-70
2022/02/23 07:06:55;;;;;;;37.20;7.20;;;6.10;99.90;;;;;;5067582;28;20236;-69
2022/02/23 07:09:22;;;;;;;20.42;6.32;;;6.10;99.90;;;;;;5067488;28;20192;-69
2022/02/23 07:11:49;;;;;;;23.42;5.68;;;6.10;99.90;;;;;;5067474;28;20276;-70
2022/02/23 07:14:18;;;;;;;18.88;6.45;;;6.10;99.90;;;;;;5065881;28;20197;-71
2022/02/23 07:16:45;;;;;;;21.40;5.43;;;6.20;99.90;;;;;;5067716;28;20242;-68
2022/02/23 07:19:12;;;;;;;17.77;5.95;;;6.20;99.90;;;;;;5067426;28;20390;-70
2022/02/23 07:21:39;;;;;;;25.23;6.28;;;6.40;99.90;;;;;;5062802;28;20183;-69
2022/02/23 07:24:07;;;;;;;21.17;5.50;;;6.70;99.90;;;;;;5065785;28;20318;-70
2022/02/23 07:26:34;;;;;;;23.35;6.07;;;7.10;99.90;;;;;;5067967;28;20375;-67
2022/02/23 07:29:01;;;;;;;21.60;6.10;;;7.50;99.90;;;;;;5067379;28;20633;-70
2022/02/23 07:31:29;;;;;;;26.42;4.85;;;8.00;99.90;;;;;;5061576;28;20227;-69
2022/02/23 07:33:56;;;;;;;13.85;4.82;;;8.40;99.90;;;;;;5058023;28;20222;-70
2022/02/23 07:36:23;;;;;;;26.13;6.13;;;8.90;99.90;;;;;;5066423;28;20191;-69
2022/02/23 07:38:51;;;;;;;26.63;7.10;;;8.90;99.90;;;;;;5065318;28;20184;-67
2022/02/23 07:41:22;;;;;;;16.08;4.63;;;9.30;99.90;;;;;;5062800;28;20208;-70
2022/02/23 07:43:50;;;;;;;22.40;4.65;;;9.70;99.90;;;;;;5064865;28;20435;-70
2022/02/23 07:46:17;;;;;;;18.65;4.93;;;9.80;99.90;;;;;;5062696;28;20185;-70
2022/02/23 07:48:47;;;;;;;20.10;6.90;;;10.00;99.90;;;;;;5050482;28;20189;-71
2022/02/23 07:51:14;;;;;;;22.20;5.00;;;10.10;99.90;;;;;;5050489;28;20209;-70
2022/02/23 07:53:42;;;;;;;22.13;4.70;;;10.60;99.90;;;;;;5062685;28;20204;-69
2022/02/23 07:56:09;;;;;;;13.15;4.28;;;10.90;99.90;;;;;;5064523;28;20259;-69
2022/02/23 07:58:36;;;;;;;10.10;3.38;;;11.00;99.90;;;;;;5056273;28;20222;-68
2022/02/23 08:01:03;;;;;;;9.90;3.58;;;11.60;99.90;;;;;;5051698;28;20187;-69
2022/02/23 08:03:32;;;;;;;18.92;4.30;;;11.40;99.90;;;;;;5066806;28;20236;-69
2022/02/23 08:06:00;;;;;;;13.63;4.25;;;10.90;99.90;;;;;;5066819;28;20188;-69
2022/02/23 08:08:27;;;;;;;15.57;5.32;;;10.80;99.90;;;;;;5061931;28;20224;-69
2022/02/23 08:10:54;;;;;;;24.65;4.88;;;10.60;99.90;;;;;;5066226;28;20196;-70
2022/02/23 08:13:22;;;;;;;16.75;4.07;;;10.50;99.90;;;;;;5066161;28;20245;-69
2022/02/23 08:21:21;;;;;;;22.77;6.90;;;12.00;99.90;;;;;;5063480;28;20195;-70
2022/02/23 08:23:47;;;;;;;21.25;4.35;;;12.40;99.90;;;;;;5066543;28;20235;-68
2022/02/23 08:26:14;;;;;;;15.38;4.22;;;12.50;99.90;;;;;;5062669;28;20375;-69
2022/02/23 08:28:41;;;;;;;13.68;3.95;;;12.60;99.90;;;;;;5063597;28;20199;-70
2022/02/23 08:31:08;;;;;;;11.23;3.90;;;12.20;99.90;;;;;;5065921;28;20264;-69
2022/02/23 08:33:36;;;;;;;10.75;3.90;;;12.80;99.90;;;;;;5065374;28;20227;-69
2022/02/23 08:36:03;;;;;;;14.82;4.50;;;13.40;99.90;;;;;;5065312;28;20218;-69
2022/02/23 08:38:31;;;;;;;14.52;4.15;;;13.40;99.90;;;;;;5066580;28;20184;-69
2022/02/23 08:40:58;;;;;;;12.10;3.85;;;13.50;99.90;;;;;;5068160;28;20311;-70
2022/02/23 08:43:25;;;;;;;10.93;4.75;;;14.00;99.90;;;;;;5064767;28;20272;-70
2022/02/23 08:45:52;;;;;;;13.75;4.40;;;13.50;99.90;;;;;;5065705;28;20277;-68
2022/02/23 08:48:19;;;;;;;16.65;4.50;;;13.50;99.90;;;;;;5066152;28;20180;-70
2022/02/23 08:50:46;;;;;;;12.82;3.47;;;13.50;99.60;;;;;;5065114;28;20230;-70
2022/02/23 08:53:13;;;;;;;18.58;4.20;;;14.00;99.30;;;;;;5066257;28;20255;-69
2022/02/23 08:55:41;;;;;;;10.40;3.28;;;13.80;98.50;;;;;;5066138;28;20377;-69
2022/02/23 08:58:11;;;;;;;14.87;3.97;;;13.90;99.10;;;;;;5067692;28;20346;-68
2022/02/23 09:00:38;;;;;;;9.00;3.35;;;14.20;98.00;;;;;;5064796;28;20437;-68
2022/02/23 09:03:05;;;;;;;9.73;4.00;;;14.30;97.60;;;;;;5065859;28;20320;-69
2022/02/23 09:05:32;;;;;;;16.83;4.50;;;13.80;98.70;;;;;;5066472;28;20202;-70
2022/02/23 09:07:59;;;;;;;12.15;3.50;;;14.10;97.70;;;;;;5066359;28;20254;-71
2022/02/23 09:10:26;;;;;;;13.35;3.30;;;14.20;97.70;;;;;;5065847;28;20210;-68
2022/02/23 09:12:54;;;;;;;7.55;3.13;;;14.50;97.60;;;;;;5065783;28;20278;-69
2022/02/23 09:15:21;;;;;;;14.32;3.60;;;14.40;96.90;;;;;;5066459;28;20245;-69
2022/02/23 09:17:48;;;;;;;14.98;4.07;;;14.10;97.10;;;;;;5065782;28;20257;-69
2022/02/23 09:20:15;;;;;;;11.40;4.18;;;14.60;96.10;;;;;;5065896;28;20190;-68
2022/02/23 09:22:42;;;;;;;19.58;4.75;;;14.30;96.40;;;;;;5066040;28;20241;-69
2022/02/23 09:25:09;;;;;;;12.65;4.18;;;14.30;96.40;;;;;;5066290;28;20189;-69
2022/02/23 09:27:37;;;;;;;19.90;5.05;;;13.80;97.10;;;;;;5065909;28;20188;-70
2022/02/23 09:30:08;;;;;;;10.43;3.45;;;13.60;99.20;;;;;;5059222;28;20252;-70
2022/02/23 09:32:35;;;;;;;15.70;4.50;;;13.70;97.70;;;;;;5065637;28;20223;-71
2022/02/23 09:35:02;;;;;;;15.30;3.75;;;13.80;98.60;;;;;;5066317;28;20204;-69
2022/02/23 09:37:29;;;;;;;18.95;4.07;;;14.10;97.20;;;;;;5066065;28;20197;-71
2022/02/23 09:39:56;;;;;;;10.30;3.73;;;14.40;97.20;;;;;;5068494;28;20195;-70
2022/02/23 09:42:26;;;;;;;14.97;3.87;;;15.20;96.00;;;;;;5070037;28;20449;-70
2022/02/23 09:44:54;;;;;;;13.13;3.80;;;14.90;94.30;;;;;;5070252;28;20425;-69
2022/02/23 09:47:22;;;;;;;12.82;4.30;;;14.20;94.90;;;;;;5070205;28;20450;-70
2022/02/23 09:49:50;;;;;;;11.35;4.32;;;14.20;96.20;;;;;;5074726;28;20224;-70
2022/02/23 09:52:21;;;;;;;10.93;3.75;;;14.20;96.50;;;;;;5069290;28;20222;-69
2022/02/23 09:54:48;;;;;;;13.33;3.83;;;14.40;95.40;;;;;;5068923;28;20398;-70
2022/02/23 09:57:15;;;;;;;10.70;3.20;;;14.10;95.50;;;;;;5077641;28;20417;-69
2022/02/23 09:59:42;;;;;;;10.50;3.17;;;14.30;95.60;;;;;;5068464;28;20201;-70
2022/02/23 10:02:11;;;;;;;9.88;3.75;;;14.30;94.70;;;;;;5068967;28;20209;-68
2022/02/23 10:04:40;;;;;;;12.00;5.35;;;14.50;95.20;;;;;;5077188;28;20397;-71
2022/02/23 10:07:08;;;;;;;8.27;3.03;;;14.60;94.30;;;;;;5062481;28;20235;-71
2022/02/23 10:09:42;;;;;;;14.10;2.90;;;14.40;94.60;;;;;;5068288;28;20186;-68
2022/02/23 10:12:10;;;;;;;13.48;4.72;;;14.50;93.90;;;;;;5068943;28;20284;-69
2022/02/23 10:14:37;;;;;;;13.18;3.05;;;14.50;93.40;;;;;;5068762;28;20359;-69
2022/02/23 10:17:04;;;;;;;13.40;3.20;;;14.80;93.90;;;;;;5060840;28;20420;-69
2022/02/23 10:19:33;;;;;;;19.67;4.63;;;14.50;93.10;;;;;;5067811;28;20187;-70
2022/02/23 10:22:02;;;;;;;24.00;4.20;;;14.20;93.90;;;;;;5068538;28;20200;-70
2022/02/23 10:24:31;;;;;;;15.02;4.60;;;14.10;94.10;;;;;;5068594;28;20426;-68
2022/02/23 10:27:04;;;;;;;9.02;3.17;;;14.00;93.80;;;;;;5069089;28;20194;-69
2022/02/23 10:29:35;;;;;;;11.70;3.22;;;13.80;92.70;;;;;;5068371;28;20372;-69
2022/02/23 10:32:07;;;;;;;7.50;3.63;;;13.80;93.20;;;;;;5068336;28;20428;-69
2022/02/23 10:34:39;;;;;;;13.88;3.28;;;14.10;93.20;;;;;;5076896;28;20184;-70
2022/02/23 10:37:08;;;;;;;12.38;3.35;;;14.30;92.30;;;;;;5061268;28;20414;-69
2022/02/23 10:39:42;;;;;;;10.50;3.45;;;14.30;92.00;;;;;;5064310;28;20262;-71
2022/02/23 10:42:10;;;;;;;6.72;2.58;;;14.10;92.10;;;;;;5068571;28;20223;-69
2022/02/23 10:44:41;;;;;;;12.93;3.75;;;13.60;92.90;;;;;;5068521;28;20223;-67
2022/02/23 10:47:08;;;;;;;5.47;2.55;;;13.90;93.30;;;;;;5071676;28;20253;-69
2022/02/23 10:49:35;;;;;;;6.65;2.85;;;14.20;92.00;;;;;;5070507;28;20289;-69
2022/02/23 10:52:07;;;;;;;8.57;3.22;;;14.00;92.30;;;;;;5067922;28;20249;-71
2022/02/23 10:54:36;;;;;;;11.60;2.83;;;14.10;92.70;;;;;;5073126;28;20455;-71
2022/02/23 10:57:19;;;;;;;4.68;2.15;;;13.30;92.90;;;;;;5067816;28;20222;-70
2022/02/23 10:59:46;;;;;;;6.60;2.65;;;12.90;93.50;;;;;;5066468;28;20318;-70
2022/02/23 11:02:13;;;;;;;12.98;4.28;;;12.60;94.60;;;;;;5067560;28;20222;-68
2022/02/23 11:04:42;;;;;;;7.53;2.40;;;12.50;95.00;;;;;;5067977;28;20190;-69
2022/02/23 11:07:09;;;;;;;11.77;2.63;;;12.50;95.70;;;;;;5065255;28;20181;-70
2022/02/23 11:09:37;;;;;;;6.32;2.30;;;12.70;95.30;;;;;;5066725;28;20258;-69
2022/02/23 11:12:07;;;;;;;8.65;2.53;;;12.70;94.80;;;;;;5076408;28;20225;-71
2022/02/23 11:14:36;;;;;;;8.32;2.58;;;12.60;95.60;;;;;;5079543;28;20256;-71
2022/02/23 11:17:04;;;;;;;5.57;2.22;;;12.50;94.80;;;;;;5067612;28;20211;-71
2022/02/23 11:19:34;;;;;;;11.90;2.05;;;12.60;95.70;;;;;;5067418;28;20190;-68
2022/02/23 11:22:04;;;;;;;10.45;3.00;;;12.50;95.10;;;;;;5067458;28;20252;-70
2022/02/23 11:24:31;;;;;;;6.75;2.53;;;12.20;95.70;;;;;;5067912;28;20329;-68
2022/02/23 11:27:06;;;;;;;8.90;2.35;;;12.10;95.60;;;;;;5067377;28;20198;-69
2022/02/23 11:29:40;;;;;;;7.60;2.25;;;12.20;95.30;;;;;;5066859;28;20237;-67
2022/02/23 11:32:08;;;;;;;9.98;2.97;;;11.90;95.50;;;;;;5059422;28;20222;-69
2022/02/23 11:34:38;;;;;;;7.72;2.08;;;11.90;96.20;;;;;;5067864;28;20186;-68
2022/02/23 11:37:12;;;;;;;12.68;2.97;;;12.00;95.80;;;;;;5067540;28;20183;-69
2022/02/23 11:39:39;;;;;;;7.57;2.35;;;12.00;95.80;;;;;;5066838;28;20185;-69
2022/02/23 11:42:10;;;;;;;6.80;2.50;;;11.90;96.60;;;;;;5067239;28;20212;-69
2022/02/23 11:44:45;;;;;;;8.75;2.45;;;11.90;96.80;;;;;;5067121;28;20368;-70
2022/02/23 11:47:14;;;;;;;7.68;2.95;;;11.90;97.50;;;;;;5067244;28;20183;-71
2022/02/23 11:49:51;;;;;;;9.63;2.67;;;11.70;96.70;;;;;;5066465;28;20197;-70
2022/02/23 11:52:20;;;;;;;5.90;2.40;;;11.50;97.40;;;;;;5066515;28;20231;-70
2022/02/23 11:54:55;;;;;;;10.05;3.00;;;11.60;98.20;;;;;;5059122;28;20195;-68
2022/02/23 11:57:48;;;;;;;5.63;2.60;;;11.70;98.20;;;;;;5067075;28;20189;-71
2022/02/23 12:00:18;;;;;;;5.25;2.65;;;11.80;97.90;;;;;;5069859;28;20367;-70
2022/02/23 12:02:58;;;;;;;8.88;2.60;;;11.70;98.00;;;;;;5066011;28;20206;-72
2022/02/23 12:05:36;;;;;;;14.70;3.45;;;11.60;97.70;;;;;;5067126;28;20190;-69
2022/02/23 12:08:03;;;;;;;9.27;2.88;;;11.40;98.70;;;;;;5066440;28;20244;-69
2022/02/23 12:10:31;;;;;;;9.10;3.83;;;11.30;99.90;;;;;;5066813;28;20449;-70
2022/02/23 12:13:01;;;;;;;11.93;2.95;;;11.20;99.70;;;;;;5066316;28;20259;-68
2022/02/23 12:15:34;;;;;;;11.55;2.78;;;11.40;99.90;;;;;;5066848;28;20222;-69
2022/02/23 12:18:02;;;;;;;13.75;3.58;;;11.50;99.00;;;;;;5048597;28;20193;-70
2022/02/23 12:20:54;;;;;;;7.30;2.17;;;11.40;99.10;;;;;;5071836;28;20219;-69
2022/02/23 12:23:38;;;;;;;9.32;2.30;;;11.20;99.60;;;;;;5065610;28;20332;-69
2022/02/23 12:26:17;;;;;;;11.73;4.20;;;11.30;99.90;;;;;;5066719;28;20373;-70
2022/02/23 12:28:47;;;;;;;3.95;2.60;;;11.30;99.80;;;;;;5065013;28;20220;-68
2022/02/23 12:31:19;;;;;;;8.60;3.05;;;11.40;99.10;;;;;;5065967;28;20190;-71
2022/02/23 12:33:48;;;;;;;8.93;2.10;;;11.30;98.30;;;;;;5066287;28;20220;-69
2022/02/23 12:36:43;;;;;;;15.85;2.90;;;11.50;98.90;;;;;;5066533;28;20253;-69
2022/02/23 12:39:12;;;;;;;7.38;2.22;;;11.60;98.40;;;;;;5051732;28;20216;-69
2022/02/23 12:41:40;;;;;;;8.10;2.40;;;11.80;98.90;;;;;;5065639;28;20201;-70
2022/02/23 12:44:11;;;;;;;4.20;2.50;;;12.00;97.70;;;;;;5067430;28;20179;-70
2022/02/23 12:46:41;;;;;;;4.82;3.70;;;12.00;97.10;;;;;;5066394;28;20194;-68
2022/02/23 12:49:09;;;;;;;4.80;1.70;;;11.70;96.10;;;;;;5063905;28;20198;-68
2022/02/23 12:51:37;;;;;;;8.05;2.50;;;11.70;96.60;;;;;;5065259;28;20267;-70
2022/02/23 12:54:08;;;;;;;6.25;2.70;;;11.70;96.00;;;;;;5058191;28;20206;-71
2022/02/23 12:56:38;;;;;;;6.60;1.85;;;11.90;95.80;;;;;;5065863;28;20258;-70